sensor_id;sensor_type;location;lat;lon;timestamp;P1;durP1;ratioP1;P2;durP2;ratioP2
36575;SDS011;45700;50.930;5.168;2023-12-20T00:00:24;2.40;;;0.85;;
36575;SDS011;45700;50.930;5.168;2023-12-20T00:04:24;2.33;;;0.77;;
36575;SDS011;45700;50.930;5.168;2023-12-20T00:08:24;1.97;;;0.70;;
36575;SDS011;45700;50.930;5.168;2023-12-20T00:12:25;2.63;;;0.65;;
36575;SDS011;45700;50.930;5.168;2023-12-20T00:16:25;2.38;;;0.68;;
36575;SDS011;45700;50.930;5.168;2023-12-20T00:20:25;2.35;;;0.77;;
36575;SDS011;45700;50.930;5.168;2023-12-20T00:24:26;2.28;;;0.65;;
36575;SDS011;45700;50.930;5.168;2023-12-20T00:28:26;1.75;;;0.77;;
36575;SDS011;45700;50.930;5.168;2023-12-20T00:32:27;4.80;;;1.00;;
36575;SDS011;45700;50.930;5.168;2023-12-20T00:36:27;2.80;;;0.70;;
36575;SDS011;45700;50.930;5.168;2023-12-20T00:40:27;2.00;;;0.70;;
36575;SDS011;45700;50.930;5.168;2023-12-20T00:44:28;2.40;;;0.70;;
36575;SDS011;45700;50.930;5.168;2023-12-20T00:48:28;2.05;;;0.75;;
36575;SDS011;45700;50.930;5.168;2023-12-20T00:52:30;3.17;;;0.70;;
36575;SDS011;45700;50.930;5.168;2023-12-20T00:56:30;1.30;;;0.60;;
36575;SDS011;45700;50.930;5.168;2023-12-20T01:00:30;2.08;;;0.70;;
36575;SDS011;45700;50.930;5.168;2023-12-20T01:04:31;3.43;;;0.90;;
36575;SDS011;45700;50.930;5.168;2023-12-20T01:08:31;1.97;;;0.70;;
36575;SDS011;45700;50.930;5.168;2023-12-20T01:12:31;1.23;;;0.50;;
36575;SDS011;45700;50.930;5.168;2023-12-20T01:16:32;2.03;;;0.70;;
36575;SDS011;45700;50.930;5.168;2023-12-20T01:20:32;2.33;;;0.67;;
36575;SDS011;45700;50.930;5.168;2023-12-20T01:24:32;3.28;;;0.90;;
36575;SDS011;45700;50.930;5.168;2023-12-20T01:28:33;1.58;;;0.52;;
36575;SDS011;45700;50.930;5.168;2023-12-20T01:32:33;2.95;;;0.70;;
36575;SDS011;45700;50.930;5.168;2023-12-20T01:36:33;2.30;;;0.70;;
36575;SDS011;45700;50.930;5.168;2023-12-20T01:40:34;3.80;;;0.63;;
36575;SDS011;45700;50.930;5.168;2023-12-20T01:44:34;2.15;;;0.70;;
36575;SDS011;45700;50.930;5.168;2023-12-20T01:48:34;2.73;;;0.77;;
36575;SDS011;45700;50.930;5.168;2023-12-20T01:52:35;2.38;;;0.90;;
36575;SDS011;45700;50.930;5.168;2023-12-20T01:56:35;1.95;;;0.70;;
36575;SDS011;45700;50.930;5.168;2023-12-20T02:00:36;2.40;;;0.70;;
36575;SDS011;45700;50.930;5.168;2023-12-20T02:04:37;1.48;;;0.55;;
36575;SDS011;45700;50.930;5.168;2023-12-20T02:08:37;1.48;;;0.50;;
36575;SDS011;45700;50.930;5.168;2023-12-20T02:12:37;2.03;;;0.70;;
36575;SDS011;45700;50.930;5.168;2023-12-20T02:16:38;1.87;;;0.60;;
36575;SDS011;45700;50.930;5.168;2023-12-20T02:20:38;3.35;;;0.70;;
36575;SDS011;45700;50.930;5.168;2023-12-20T02:24:38;3.50;;;0.80;;
36575;SDS011;45700;50.930;5.168;2023-12-20T02:28:39;1.48;;;0.60;;
36575;SDS011;45700;50.930;5.168;2023-12-20T02:32:39;2.75;;;0.80;;
36575;SDS011;45700;50.930;5.168;2023-12-20T02:36:39;2.20;;;0.60;;
36575;SDS011;45700;50.930;5.168;2023-12-20T02:40:40;2.63;;;0.73;;
36575;SDS011;45700;50.930;5.168;2023-12-20T02:44:40;1.80;;;0.70;;
36575;SDS011;45700;50.930;5.168;2023-12-20T02:48:40;2.28;;;0.73;;
36575;SDS011;45700;50.930;5.168;2023-12-20T02:52:42;2.67;;;0.67;;
36575;SDS011;45700;50.930;5.168;2023-12-20T02:56:44;2.28;;;0.70;;
36575;SDS011;45700;50.930;5.168;2023-12-20T03:00:45;1.42;;;0.50;;
36575;SDS011;45700;50.930;5.168;2023-12-20T03:04:45;2.40;;;0.50;;
36575;SDS011;45700;50.930;5.168;2023-12-20T03:08:45;1.90;;;0.55;;
36575;SDS011;45700;50.930;5.168;2023-12-20T03:12:46;1.83;;;0.60;;
36575;SDS011;45700;50.930;5.168;2023-12-20T03:16:47;1.70;;;0.68;;
36575;SDS011;45700;50.930;5.168;2023-12-20T03:20:51;1.83;;;0.63;;
36575;SDS011;45700;50.930;5.168;2023-12-20T03:24:51;1.63;;;0.63;;
36575;SDS011;45700;50.930;5.168;2023-12-20T03:28:52;1.80;;;0.73;;
36575;SDS011;45700;50.930;5.168;2023-12-20T03:32:52;2.67;;;0.60;;
36575;SDS011;45700;50.930;5.168;2023-12-20T03:36:52;0.90;;;0.47;;
36575;SDS011;45700;50.930;5.168;2023-12-20T03:40:53;2.23;;;0.50;;
36575;SDS011;45700;50.930;5.168;2023-12-20T03:44:53;1.95;;;0.63;;
36575;SDS011;45700;50.930;5.168;2023-12-20T03:48:53;2.40;;;0.52;;
36575;SDS011;45700;50.930;5.168;2023-12-20T03:52:54;1.57;;;0.60;;
36575;SDS011;45700;50.930;5.168;2023-12-20T03:56:54;3.30;;;0.57;;
36575;SDS011;45700;50.930;5.168;2023-12-20T04:00:54;3.33;;;0.73;;
36575;SDS011;45700;50.930;5.168;2023-12-20T04:04:55;2.15;;;0.52;;
36575;SDS011;45700;50.930;5.168;2023-12-20T04:08:55;0.87;;;0.50;;
36575;SDS011;45700;50.930;5.168;2023-12-20T04:12:55;1.33;;;0.50;;
36575;SDS011;45700;50.930;5.168;2023-12-20T04:16:56;2.47;;;0.60;;
36575;SDS011;45700;50.930;5.168;2023-12-20T04:20:56;2.40;;;0.70;;
36575;SDS011;45700;50.930;5.168;2023-12-20T04:24:56;1.65;;;0.70;;
36575;SDS011;45700;50.930;5.168;2023-12-20T04:28:57;2.70;;;0.80;;
36575;SDS011;45700;50.930;5.168;2023-12-20T04:32:57;1.97;;;0.40;;
36575;SDS011;45700;50.930;5.168;2023-12-20T04:36:57;2.00;;;0.47;;
36575;SDS011;45700;50.930;5.168;2023-12-20T04:40:58;1.52;;;0.52;;
36575;SDS011;45700;50.930;5.168;2023-12-20T04:44:58;1.85;;;0.55;;
36575;SDS011;45700;50.930;5.168;2023-12-20T04:48:58;1.83;;;0.70;;
36575;SDS011;45700;50.930;5.168;2023-12-20T04:52:59;2.53;;;0.60;;
36575;SDS011;45700;50.930;5.168;2023-12-20T04:56:59;1.92;;;0.70;;
36575;SDS011;45700;50.930;5.168;2023-12-20T05:00:59;1.75;;;0.60;;
36575;SDS011;45700;50.930;5.168;2023-12-20T05:05:00;2.22;;;0.68;;
36575;SDS011;45700;50.930;5.168;2023-12-20T05:09:00;3.63;;;0.68;;
36575;SDS011;45700;50.930;5.168;2023-12-20T05:13:00;3.63;;;0.67;;
36575;SDS011;45700;50.930;5.168;2023-12-20T05:17:01;1.42;;;0.50;;
36575;SDS011;45700;50.930;5.168;2023-12-20T05:21:01;2.07;;;0.80;;
36575;SDS011;45700;50.930;5.168;2023-12-20T05:25:01;2.63;;;0.68;;
36575;SDS011;45700;50.930;5.168;2023-12-20T05:29:02;2.67;;;0.85;;
36575;SDS011;45700;50.930;5.168;2023-12-20T05:33:02;2.30;;;0.53;;
36575;SDS011;45700;50.930;5.168;2023-12-20T05:37:02;2.78;;;0.77;;
36575;SDS011;45700;50.930;5.168;2023-12-20T05:41:03;2.97;;;0.90;;
36575;SDS011;45700;50.930;5.168;2023-12-20T05:45:04;2.78;;;0.70;;
36575;SDS011;45700;50.930;5.168;2023-12-20T05:49:05;2.45;;;0.65;;
36575;SDS011;45700;50.930;5.168;2023-12-20T05:53:06;3.08;;;0.70;;
36575;SDS011;45700;50.930;5.168;2023-12-20T05:57:06;2.10;;;0.68;;
36575;SDS011;45700;50.930;5.168;2023-12-20T06:01:06;3.33;;;0.70;;
36575;SDS011;45700;50.930;5.168;2023-12-20T06:05:08;2.60;;;0.50;;
36575;SDS011;45700;50.930;5.168;2023-12-20T06:09:08;2.08;;;0.55;;
36575;SDS011;45700;50.930;5.168;2023-12-20T06:13:09;2.88;;;0.60;;
36575;SDS011;45700;50.930;5.168;2023-12-20T06:17:09;2.22;;;0.60;;
36575;SDS011;45700;50.930;5.168;2023-12-20T06:21:10;2.80;;;1.10;;
36575;SDS011;45700;50.930;5.168;2023-12-20T06:25:12;3.85;;;0.60;;
36575;SDS011;45700;50.930;5.168;2023-12-20T06:29:13;1.92;;;0.63;;
36575;SDS011;45700;50.930;5.168;2023-12-20T06:33:13;2.38;;;0.80;;
36575;SDS011;45700;50.930;5.168;2023-12-20T06:37:13;2.03;;;0.70;;
36575;SDS011;45700;50.930;5.168;2023-12-20T06:41:15;2.10;;;0.60;;
36575;SDS011;45700;50.930;5.168;2023-12-20T06:45:16;2.63;;;0.75;;
36575;SDS011;45700;50.930;5.168;2023-12-20T06:49:16;1.50;;;0.50;;
36575;SDS011;45700;50.930;5.168;2023-12-20T06:53:17;2.20;;;0.80;;
36575;SDS011;45700;50.930;5.168;2023-12-20T06:57:18;2.90;;;0.55;;
36575;SDS011;45700;50.930;5.168;2023-12-20T07:01:19;2.30;;;0.60;;
36575;SDS011;45700;50.930;5.168;2023-12-20T07:05:20;3.35;;;0.90;;
36575;SDS011;45700;50.930;5.168;2023-12-20T07:09:20;11.10;;;1.27;;
36575;SDS011;45700;50.930;5.168;2023-12-20T07:13:20;6.13;;;1.00;;
36575;SDS011;45700;50.930;5.168;2023-12-20T07:17:22;4.00;;;1.02;;
36575;SDS011;45700;50.930;5.168;2023-12-20T07:21:23;6.05;;;1.30;;
36575;SDS011;45700;50.930;5.168;2023-12-20T07:25:23;6.38;;;1.42;;
36575;SDS011;45700;50.930;5.168;2023-12-20T07:29:23;7.53;;;1.37;;
36575;SDS011;45700;50.930;5.168;2023-12-20T07:33:24;5.93;;;1.85;;
36575;SDS011;45700;50.930;5.168;2023-12-20T07:37:26;6.97;;;1.55;;
36575;SDS011;45700;50.930;5.168;2023-12-20T07:41:34;6.00;;;1.35;;
36575;SDS011;45700;50.930;5.168;2023-12-20T07:45:35;5.05;;;1.60;;
36575;SDS011;45700;50.930;5.168;2023-12-20T07:49:35;8.13;;;1.85;;
36575;SDS011;45700;50.930;5.168;2023-12-20T07:53:35;8.77;;;1.65;;
36575;SDS011;45700;50.930;5.168;2023-12-20T07:57:36;16.58;;;1.83;;
36575;SDS011;45700;50.930;5.168;2023-12-20T08:01:36;8.00;;;1.63;;
36575;SDS011;45700;50.930;5.168;2023-12-20T08:05:37;7.90;;;2.03;;
36575;SDS011;45700;50.930;5.168;2023-12-20T08:09:40;8.73;;;2.20;;
36575;SDS011;45700;50.930;5.168;2023-12-20T08:13:40;6.43;;;1.42;;
36575;SDS011;45700;50.930;5.168;2023-12-20T08:17:40;8.73;;;1.90;;
36575;SDS011;45700;50.930;5.168;2023-12-20T08:21:41;8.55;;;1.65;;
36575;SDS011;45700;50.930;5.168;2023-12-20T08:25:41;3.60;;;1.13;;
36575;SDS011;45700;50.930;5.168;2023-12-20T08:29:43;7.65;;;1.63;;
36575;SDS011;45700;50.930;5.168;2023-12-20T08:33:44;7.45;;;1.83;;
36575;SDS011;45700;50.930;5.168;2023-12-20T08:37:46;8.02;;;1.83;;
36575;SDS011;45700;50.930;5.168;2023-12-20T08:41:46;13.85;;;1.83;;
36575;SDS011;45700;50.930;5.168;2023-12-20T08:45:46;11.00;;;2.47;;
36575;SDS011;45700;50.930;5.168;2023-12-20T08:49:47;15.05;;;2.35;;
36575;SDS011;45700;50.930;5.168;2023-12-20T08:53:47;12.52;;;1.85;;
36575;SDS011;45700;50.930;5.168;2023-12-20T08:57:48;9.80;;;1.85;;
36575;SDS011;45700;50.930;5.168;2023-12-20T09:01:50;11.27;;;2.00;;
36575;SDS011;45700;50.930;5.168;2023-12-20T09:05:54;7.80;;;1.70;;
36575;SDS011;45700;50.930;5.168;2023-12-20T09:09:54;6.38;;;1.67;;
36575;SDS011;45700;50.930;5.168;2023-12-20T09:13:55;11.67;;;1.97;;
36575;SDS011;45700;50.930;5.168;2023-12-20T09:17:55;12.05;;;2.30;;
36575;SDS011;45700;50.930;5.168;2023-12-20T09:21:56;9.50;;;2.17;;
36575;SDS011;45700;50.930;5.168;2023-12-20T09:25:56;9.17;;;1.97;;
36575;SDS011;45700;50.930;5.168;2023-12-20T09:29:56;6.30;;;1.90;;
36575;SDS011;45700;50.930;5.168;2023-12-20T09:33:57;9.30;;;1.90;;
36575;SDS011;45700;50.930;5.168;2023-12-20T09:37:57;6.78;;;1.52;;
36575;SDS011;45700;50.930;5.168;2023-12-20T09:42:01;6.33;;;1.63;;
36575;SDS011;45700;50.930;5.168;2023-12-20T09:46:05;7.53;;;1.80;;
36575;SDS011;45700;50.930;5.168;2023-12-20T09:50:07;8.55;;;1.83;;
36575;SDS011;45700;50.930;5.168;2023-12-20T09:54:08;7.25;;;1.30;;
36575;SDS011;45700;50.930;5.168;2023-12-20T09:58:09;13.55;;;2.08;;
36575;SDS011;45700;50.930;5.168;2023-12-20T10:02:11;55.10;;;5.00;;
36575;SDS011;45700;50.930;5.168;2023-12-20T10:06:14;65.47;;;4.32;;
36575;SDS011;45700;50.930;5.168;2023-12-20T10:10:15;47.85;;;4.28;;
36575;SDS011;45700;50.930;5.168;2023-12-20T10:14:15;41.05;;;4.07;;
